sensor_id;sensor_type;location;lat;lon;timestamp;P1;durP1;ratioP1;P2;durP2;ratioP2
16159;SDS011;8185;57.818;15.224;2023-04-02T00:01:17;1.00;;;0.80;;
16159;SDS011;8185;57.818;15.224;2023-04-02T00:04:10;1.27;;;0.80;;
16159;SDS011;8185;57.818;15.224;2023-04-02T00:06:40;2.33;;;1.10;;
16159;SDS011;8185;57.818;15.224;2023-04-02T00:09:20;3.23;;;0.90;;
16159;SDS011;8185;57.818;15.224;2023-04-02T00:11:55;1.40;;;1.03;;
16159;SDS011;8185;57.818;15.224;2023-04-02T00:14:25;3.47;;;1.00;;
16159;SDS011;8185;57.818;15.224;2023-04-02T00:16:56;2.53;;;1.00;;
16159;SDS011;8185;57.818;15.224;2023-04-02T00:19:28;1.47;;;1.07;;
16159;SDS011;8185;57.818;15.224;2023-04-02T00:21:59;4.03;;;1.00;;
16159;SDS011;8185;57.818;15.224;2023-04-02T00:24:29;3.90;;;1.13;;
16159;SDS011;8185;57.818;15.224;2023-04-02T00:26:58;2.53;;;1.10;;
16159;SDS011;8185;57.818;15.224;2023-04-02T00:29:26;2.80;;;1.23;;
16159;SDS011;8185;57.818;15.224;2023-04-02T00:31:53;2.47;;;1.00;;
16159;SDS011;8185;57.818;15.224;2023-04-02T00:34:26;3.40;;;1.03;;
16159;SDS011;8185;57.818;15.224;2023-04-02T00:36:57;1.90;;;0.80;;
16159;SDS011;8185;57.818;15.224;2023-04-02T00:39:25;1.43;;;0.90;;
16159;SDS011;8185;57.818;15.224;2023-04-02T00:41:55;4.73;;;1.20;;
16159;SDS011;8185;57.818;15.224;2023-04-02T00:44:29;2.57;;;1.20;;
16159;SDS011;8185;57.818;15.224;2023-04-02T00:46:58;5.33;;;1.10;;
16159;SDS011;8185;57.818;15.224;2023-04-02T00:49:34;1.03;;;0.90;;
16159;SDS011;8185;57.818;15.224;2023-04-02T00:52:04;2.83;;;1.37;;
16159;SDS011;8185;57.818;15.224;2023-04-02T00:54:36;2.50;;;0.90;;
16159;SDS011;8185;57.818;15.224;2023-04-02T00:57:11;1.70;;;0.80;;
16159;SDS011;8185;57.818;15.224;2023-04-02T00:59:46;1.10;;;0.70;;
16159;SDS011;8185;57.818;15.224;2023-04-02T01:02:23;1.53;;;1.00;;
16159;SDS011;8185;57.818;15.224;2023-04-02T01:04:53;2.70;;;1.10;;
16159;SDS011;8185;57.818;15.224;2023-04-02T01:07:23;3.40;;;0.93;;
16159;SDS011;8185;57.818;15.224;2023-04-02T01:10:21;2.50;;;1.00;;
16159;SDS011;8185;57.818;15.224;2023-04-02T01:13:08;3.80;;;1.17;;
16159;SDS011;8185;57.818;15.224;2023-04-02T01:15:46;1.20;;;1.00;;
16159;SDS011;8185;57.818;15.224;2023-04-02T01:18:31;6.10;;;1.20;;
16159;SDS011;8185;57.818;15.224;2023-04-02T01:21:10;1.43;;;0.93;;
16159;SDS011;8185;57.818;15.224;2023-04-02T01:23:59;1.73;;;0.97;;
16159;SDS011;8185;57.818;15.224;2023-04-02T01:26:35;3.27;;;0.97;;
16159;SDS011;8185;57.818;15.224;2023-04-02T01:29:15;4.13;;;1.20;;
16159;SDS011;8185;57.818;15.224;2023-04-02T01:31:45;2.57;;;1.27;;
16159;SDS011;8185;57.818;15.224;2023-04-02T01:34:14;3.27;;;1.00;;
16159;SDS011;8185;57.818;15.224;2023-04-02T01:36:52;1.17;;;0.87;;
16159;SDS011;8185;57.818;15.224;2023-04-02T01:39:30;2.47;;;1.10;;
16159;SDS011;8185;57.818;15.224;2023-04-02T01:42:09;1.97;;;1.03;;
16159;SDS011;8185;57.818;15.224;2023-04-02T01:44:45;4.10;;;1.40;;
16159;SDS011;8185;57.818;15.224;2023-04-02T01:47:15;2.50;;;1.10;;
16159;SDS011;8185;57.818;15.224;2023-04-02T01:49:45;3.00;;;1.27;;
16159;SDS011;8185;57.818;15.224;2023-04-02T01:52:14;5.50;;;1.40;;
16159;SDS011;8185;57.818;15.224;2023-04-02T01:54:44;2.10;;;1.10;;
16159;SDS011;8185;57.818;15.224;2023-04-02T01:57:12;2.43;;;1.20;;
16159;SDS011;8185;57.818;15.224;2023-04-02T01:59:41;4.23;;;1.47;;
16159;SDS011;8185;57.818;15.224;2023-04-02T02:02:11;2.40;;;1.00;;
16159;SDS011;8185;57.818;15.224;2023-04-02T02:04:39;5.40;;;1.13;;
16159;SDS011;8185;57.818;15.224;2023-04-02T02:07:10;3.07;;;1.10;;
16159;SDS011;8185;57.818;15.224;2023-04-02T02:09:41;2.97;;;1.00;;
16159;SDS011;8185;57.818;15.224;2023-04-02T02:12:10;3.30;;;0.97;;
16159;SDS011;8185;57.818;15.224;2023-04-02T02:14:45;3.87;;;0.87;;
16159;SDS011;8185;57.818;15.224;2023-04-02T02:17:15;3.80;;;1.43;;
16159;SDS011;8185;57.818;15.224;2023-04-02T02:19:46;2.97;;;1.37;;
16159;SDS011;8185;57.818;15.224;2023-04-02T02:22:16;1.97;;;0.90;;
16159;SDS011;8185;57.818;15.224;2023-04-02T02:24:49;4.37;;;1.60;;
16159;SDS011;8185;57.818;15.224;2023-04-02T02:30:20;3.30;;;1.30;;
16159;SDS011;8185;57.818;15.224;2023-04-02T02:32:53;5.50;;;1.30;;
16159;SDS011;8185;57.818;15.224;2023-04-02T02:35:27;3.60;;;1.40;;
16159;SDS011;8185;57.818;15.224;2023-04-02T02:38:01;2.40;;;1.20;;
16159;SDS011;8185;57.818;15.224;2023-04-02T02:40:46;3.30;;;1.20;;
16159;SDS011;8185;57.818;15.224;2023-04-02T02:43:18;2.00;;;1.30;;
16159;SDS011;8185;57.818;15.224;2023-04-02T02:45:47;4.03;;;1.50;;
16159;SDS011;8185;57.818;15.224;2023-04-02T02:48:16;2.13;;;1.23;;
16159;SDS011;8185;57.818;15.224;2023-04-02T02:50:48;3.37;;;1.47;;
16159;SDS011;8185;57.818;15.224;2023-04-02T02:53:18;2.17;;;1.20;;
16159;SDS011;8185;57.818;15.224;2023-04-02T02:55:46;3.27;;;1.00;;
16159;SDS011;8185;57.818;15.224;2023-04-02T02:58:19;2.83;;;0.90;;
16159;SDS011;8185;57.818;15.224;2023-04-02T03:00:53;3.63;;;1.20;;
16159;SDS011;8185;57.818;15.224;2023-04-02T03:03:21;3.37;;;1.33;;
16159;SDS011;8185;57.818;15.224;2023-04-02T03:05:51;3.27;;;1.40;;
16159;SDS011;8185;57.818;15.224;2023-04-02T03:08:23;4.37;;;1.60;;
16159;SDS011;8185;57.818;15.224;2023-04-02T03:10:55;2.70;;;1.10;;
16159;SDS011;8185;57.818;15.224;2023-04-02T03:13:28;1.70;;;1.03;;
16159;SDS011;8185;57.818;15.224;2023-04-02T03:16:02;2.87;;;1.30;;
16159;SDS011;8185;57.818;15.224;2023-04-02T03:18:36;3.50;;;1.57;;
16159;SDS011;8185;57.818;15.224;2023-04-02T03:21:24;2.67;;;1.17;;
16159;SDS011;8185;57.818;15.224;2023-04-02T03:23:55;3.13;;;1.33;;
16159;SDS011;8185;57.818;15.224;2023-04-02T03:26:26;4.17;;;1.40;;
16159;SDS011;8185;57.818;15.224;2023-04-02T03:29:00;5.17;;;1.30;;
16159;SDS011;8185;57.818;15.224;2023-04-02T03:31:33;4.63;;;1.60;;
16159;SDS011;8185;57.818;15.224;2023-04-02T03:34:04;2.60;;;1.40;;
16159;SDS011;8185;57.818;15.224;2023-04-02T03:36:37;3.23;;;1.30;;
16159;SDS011;8185;57.818;15.224;2023-04-02T03:39:14;4.53;;;1.60;;
16159;SDS011;8185;57.818;15.224;2023-04-02T03:41:45;2.73;;;1.10;;
16159;SDS011;8185;57.818;15.224;2023-04-02T03:44:18;4.17;;;1.10;;
16159;SDS011;8185;57.818;15.224;2023-04-02T03:46:53;4.37;;;1.63;;
16159;SDS011;8185;57.818;15.224;2023-04-02T03:49:25;2.83;;;1.10;;
16159;SDS011;8185;57.818;15.224;2023-04-02T03:51:59;3.20;;;1.27;;
16159;SDS011;8185;57.818;15.224;2023-04-02T03:54:31;3.63;;;1.40;;
16159;SDS011;8185;57.818;15.224;2023-04-02T03:56:58;3.20;;;1.07;;
16159;SDS011;8185;57.818;15.224;2023-04-02T03:59:28;2.43;;;1.43;;
16159;SDS011;8185;57.818;15.224;2023-04-02T04:02:08;2.97;;;1.20;;
16159;SDS011;8185;57.818;15.224;2023-04-02T04:04:41;5.40;;;1.57;;
16159;SDS011;8185;57.818;15.224;2023-04-02T04:07:14;6.57;;;1.60;;
16159;SDS011;8185;57.818;15.224;2023-04-02T04:09:48;3.57;;;1.30;;
16159;SDS011;8185;57.818;15.224;2023-04-02T04:12:21;6.10;;;1.60;;
16159;SDS011;8185;57.818;15.224;2023-04-02T04:14:53;6.03;;;1.50;;
16159;SDS011;8185;57.818;15.224;2023-04-02T04:17:31;3.10;;;1.60;;
16159;SDS011;8185;57.818;15.224;2023-04-02T04:20:08;3.87;;;1.43;;
16159;SDS011;8185;57.818;15.224;2023-04-02T04:22:46;4.23;;;1.47;;
16159;SDS011;8185;57.818;15.224;2023-04-02T04:25:18;5.13;;;1.77;;
16159;SDS011;8185;57.818;15.224;2023-04-02T04:27:52;4.57;;;1.60;;
16159;SDS011;8185;57.818;15.224;2023-04-02T04:30:36;2.37;;;1.30;;
16159;SDS011;8185;57.818;15.224;2023-04-02T04:33:15;3.43;;;1.60;;
16159;SDS011;8185;57.818;15.224;2023-04-02T04:35:48;4.53;;;1.50;;
16159;SDS011;8185;57.818;15.224;2023-04-02T04:38:25;5.10;;;1.50;;
16159;SDS011;8185;57.818;15.224;2023-04-02T04:40:58;2.63;;;1.27;;
16159;SDS011;8185;57.818;15.224;2023-04-02T04:43:31;4.70;;;1.60;;
16159;SDS011;8185;57.818;15.224;2023-04-02T04:46:05;4.67;;;1.10;;
16159;SDS011;8185;57.818;15.224;2023-04-02T04:48:37;4.87;;;1.33;;
16159;SDS011;8185;57.818;15.224;2023-04-02T04:51:15;4.27;;;1.37;;
16159;SDS011;8185;57.818;15.224;2023-04-02T04:53:46;4.40;;;1.60;;
16159;SDS011;8185;57.818;15.224;2023-04-02T04:56:16;4.40;;;1.67;;
16159;SDS011;8185;57.818;15.224;2023-04-02T04:58:47;4.67;;;1.57;;
16159;SDS011;8185;57.818;15.224;2023-04-02T05:01:17;4.87;;;1.57;;
16159;SDS011;8185;57.818;15.224;2023-04-02T05:03:52;2.47;;;1.60;;
16159;SDS011;8185;57.818;15.224;2023-04-02T05:06:30;3.27;;;1.40;;
16159;SDS011;8185;57.818;15.224;2023-04-02T05:09:02;2.93;;;1.50;;
16159;SDS011;8185;57.818;15.224;2023-04-02T05:11:35;4.47;;;1.50;;
16159;SDS011;8185;57.818;15.224;2023-04-02T05:14:07;3.27;;;1.60;;
16159;SDS011;8185;57.818;15.224;2023-04-02T05:16:44;5.17;;;1.50;;
16159;SDS011;8185;57.818;15.224;2023-04-02T05:19:20;3.63;;;1.80;;
16159;SDS011;8185;57.818;15.224;2023-04-02T05:21:52;4.00;;;1.83;;
16159;SDS011;8185;57.818;15.224;2023-04-02T05:24:28;4.07;;;1.67;;
16159;SDS011;8185;57.818;15.224;2023-04-02T05:27:05;4.43;;;1.47;;
16159;SDS011;8185;57.818;15.224;2023-04-02T05:29:41;3.50;;;2.00;;
16159;SDS011;8185;57.818;15.224;2023-04-02T05:32:12;3.57;;;2.20;;
16159;SDS011;8185;57.818;15.224;2023-04-02T05:34:45;2.80;;;1.83;;
16159;SDS011;8185;57.818;15.224;2023-04-02T05:37:19;4.97;;;1.80;;
16159;SDS011;8185;57.818;15.224;2023-04-02T05:39:51;2.87;;;1.80;;
16159;SDS011;8185;57.818;15.224;2023-04-02T05:42:21;5.30;;;1.30;;
16159;SDS011;8185;57.818;15.224;2023-04-02T05:44:54;2.30;;;1.50;;
16159;SDS011;8185;57.818;15.224;2023-04-02T05:47:31;2.60;;;1.23;;
16159;SDS011;8185;57.818;15.224;2023-04-02T05:50:20;1.47;;;0.97;;
16159;SDS011;8185;57.818;15.224;2023-04-02T05:52:55;7.47;;;1.77;;
16159;SDS011;8185;57.818;15.224;2023-04-02T05:55:38;4.83;;;1.50;;
16159;SDS011;8185;57.818;15.224;2023-04-02T05:58:13;3.93;;;1.10;;
16159;SDS011;8185;57.818;15.224;2023-04-02T06:03:38;3.17;;;0.93;;
16159;SDS011;8185;57.818;15.224;2023-04-02T06:06:14;5.20;;;1.63;;
16159;SDS011;8185;57.818;15.224;2023-04-02T06:08:48;1.97;;;1.13;;
16159;SDS011;8185;57.818;15.224;2023-04-02T06:11:22;3.80;;;1.43;;
16159;SDS011;8185;57.818;15.224;2023-04-02T06:13:53;4.80;;;1.17;;
16159;SDS011;8185;57.818;15.224;2023-04-02T06:16:20;4.20;;;1.33;;
16159;SDS011;8185;57.818;15.224;2023-04-02T06:18:52;1.93;;;1.00;;
16159;SDS011;8185;57.818;15.224;2023-04-02T06:21:21;2.73;;;1.43;;
16159;SDS011;8185;57.818;15.224;2023-04-02T06:23:50;2.27;;;0.93;;
16159;SDS011;8185;57.818;15.224;2023-04-02T06:26:22;4.40;;;1.20;;
16159;SDS011;8185;57.818;15.224;2023-04-02T06:28:52;3.93;;;1.00;;
16159;SDS011;8185;57.818;15.224;2023-04-02T06:31:26;3.03;;;0.90;;
16159;SDS011;8185;57.818;15.224;2023-04-02T06:33:58;3.57;;;1.37;;
16159;SDS011;8185;57.818;15.224;2023-04-02T06:36:26;2.57;;;1.10;;
16159;SDS011;8185;57.818;15.224;2023-04-02T06:38:54;2.80;;;1.17;;
16159;SDS011;8185;57.818;15.224;2023-04-02T06:41:28;2.37;;;1.10;;
16159;SDS011;8185;57.818;15.224;2023-04-02T06:43:56;1.80;;;0.90;;
16159;SDS011;8185;57.818;15.224;2023-04-02T06:46:27;4.63;;;1.00;;
16159;SDS011;8185;57.818;15.224;2023-04-02T06:49:01;3.43;;;1.03;;
16159;SDS011;8185;57.818;15.224;2023-04-02T06:51:34;4.53;;;0.83;;
16159;SDS011;8185;57.818;15.224;2023-04-02T06:54:04;2.93;;;1.27;;
16159;SDS011;8185;57.818;15.224;2023-04-02T06:56:37;2.10;;;0.80;;
16159;SDS011;8185;57.818;15.224;2023-04-02T06:59:07;3.70;;;1.10;;
16159;SDS011;8185;57.818;15.224;2023-04-02T07:01:38;3.47;;;0.90;;
16159;SDS011;8185;57.818;15.224;2023-04-02T07:04:10;2.90;;;0.90;;
16159;SDS011;8185;57.818;15.224;2023-04-02T07:06:39;4.30;;;1.03;;
16159;SDS011;8185;57.818;15.224;2023-04-02T07:09:06;2.63;;;1.00;;
16159;SDS011;8185;57.818;15.224;2023-04-02T07:11:33;2.93;;;1.00;;
16159;SDS011;8185;57.818;15.224;2023-04-02T07:14:01;3.13;;;1.13;;
16159;SDS011;8185;57.818;15.224;2023-04-02T07:16:29;2.13;;;0.90;;
16159;SDS011;8185;57.818;15.224;2023-04-02T07:18:58;2.90;;;1.30;;
16159;SDS011;8185;57.818;15.224;2023-04-02T07:21:28;3.00;;;0.90;;
16159;SDS011;8185;57.818;15.224;2023-04-02T07:23:57;3.80;;;1.03;;
16159;SDS011;8185;57.818;15.224;2023-04-02T07:26:25;3.70;;;1.03;;
16159;SDS011;8185;57.818;15.224;2023-04-02T07:28:53;3.57;;;1.03;;
16159;SDS011;8185;57.818;15.224;2023-04-02T07:31:21;3.00;;;0.97;;
16159;SDS011;8185;57.818;15.224;2023-04-02T07:33:50;3.87;;;1.00;;
16159;SDS011;8185;57.818;15.224;2023-04-02T07:36:20;3.83;;;0.90;;
16159;SDS011;8185;57.818;15.224;2023-04-02T07:38:48;3.80;;;1.00;;
16159;SDS011;8185;57.818;15.224;2023-04-02T07:41:17;3.47;;;0.97;;
16159;SDS011;8185;57.818;15.224;2023-04-02T07:43:45;7.77;;;0.83;;
16159;SDS011;8185;57.818;15.224;2023-04-02T07:46:13;3.00;;;0.83;;
16159;SDS011;8185;57.818;15.224;2023-04-02T07:48:42;1.57;;;0.70;;
16159;SDS011;8185;57.818;15.224;2023-04-02T07:51:16;4.23;;;1.00;;
16159;SDS011;8185;57.818;15.224;2023-04-02T07:53:45;3.43;;;0.80;;
16159;SDS011;8185;57.818;15.224;2023-04-02T07:56:14;2.50;;;1.10;;
16159;SDS011;8185;57.818;15.224;2023-04-02T07:58:45;3.43;;;1.03;;
16159;SDS011;8185;57.818;15.224;2023-04-02T08:01:16;2.87;;;0.67;;
16159;SDS011;8185;57.818;15.224;2023-04-02T08:03:45;3.37;;;1.23;;
16159;SDS011;8185;57.818;15.224;2023-04-02T08:06:12;4.37;;;0.77;;
16159;SDS011;8185;57.818;15.224;2023-04-02T08:08:40;2.77;;;0.63;;
16159;SDS011;8185;57.818;15.224;2023-04-02T08:11:08;0.67;;;0.50;;
16159;SDS011;8185;57.818;15.224;2023-04-02T08:13:36;2.67;;;0.53;;
16159;SDS011;8185;57.818;15.224;2023-04-02T08:16:04;2.20;;;0.50;;
16159;SDS011;8185;57.818;15.224;2023-04-02T08:18:32;1.83;;;0.80;;
16159;SDS011;8185;57.818;15.224;2023-04-02T08:20:59;2.90;;;0.80;;
16159;SDS011;8185;57.818;15.224;2023-04-02T08:23:27;1.27;;;0.80;;
16159;SDS011;8185;57.818;15.224;2023-04-02T08:25:54;2.20;;;1.00;;
16159;SDS011;8185;57.818;15.224;2023-04-02T08:28:22;3.27;;;0.90;;
16159;SDS011;8185;57.818;15.224;2023-04-02T08:30:50;3.30;;;0.80;;
16159;SDS011;8185;57.818;15.224;2023-04-02T08:33:18;2.27;;;0.90;;
16159;SDS011;8185;57.818;15.224;2023-04-02T08:35:45;2.60;;;0.80;;
16159;SDS011;8185;57.818;15.224;2023-04-02T08:38:13;0.87;;;0.50;;
16159;SDS011;8185;57.818;15.224;2023-04-02T08:40:43;1.00;;;0.80;;
16159;SDS011;8185;57.818;15.224;2023-04-02T08:43:19;2.20;;;0.67;;
16159;SDS011;8185;57.818;15.224;2023-04-02T08:46:00;4.57;;;0.73;;
16159;SDS011;8185;57.818;15.224;2023-04-02T08:48:33;1.23;;;0.67;;
16159;SDS011;8185;57.818;15.224;2023-04-02T08:51:04;2.17;;;0.80;;
16159;SDS011;8185;57.818;15.224;2023-04-02T08:53:33;2.53;;;0.83;;
16159;SDS011;8185;57.818;15.224;2023-04-02T08:56:04;5.83;;;0.90;;
16159;SDS011;8185;57.818;15.224;2023-04-02T08:58:42;3.27;;;0.80;;
16159;SDS011;8185;57.818;15.224;2023-04-02T09:01:17;2.03;;;0.77;;
16159;SDS011;8185;57.818;15.224;2023-04-02T09:03:53;1.57;;;0.73;;
16159;SDS011;8185;57.818;15.224;2023-04-02T09:06:24;1.30;;;0.50;;
16159;SDS011;8185;57.818;15.224;2023-04-02T09:08:52;3.13;;;0.60;;
16159;SDS011;8185;57.818;15.224;2023-04-02T09:11:21;2.50;;;0.67;;
16159;SDS011;8185;57.818;15.224;2023-04-02T09:13:53;1.63;;;0.90;;
16159;SDS011;8185;57.818;15.224;2023-04-02T09:16:29;5.30;;;0.80;;
16159;SDS011;8185;57.818;15.224;2023-04-02T09:19:11;2.13;;;0.70;;
16159;SDS011;8185;57.818;15.224;2023-04-02T09:21:42;1.43;;;0.57;;
16159;SDS011;8185;57.818;15.224;2023-04-02T09:24:17;0.90;;;0.53;;
16159;SDS011;8185;57.818;15.224;2023-04-02T09:26:44;0.97;;;0.60;;
16159;SDS011;8185;57.818;15.224;2023-04-02T09:29:22;3.00;;;0.80;;
16159;SDS011;8185;57.818;15.224;2023-04-02T09:32:05;3.70;;;1.03;;
16159;SDS011;8185;57.818;15.224;2023-04-02T09:34:41;1.13;;;0.50;;
16159;SDS011;8185;57.818;15.224;2023-04-02T09:37:13;2.97;;;0.57;;
16159;SDS011;8185;57.818;15.224;2023-04-02T09:39:42;1.37;;;0.50;;
16159;SDS011;8185;57.818;15.224;2023-04-02T09:42:28;0.80;;;0.40;;
16159;SDS011;8185;57.818;15.224;2023-04-02T09:45:11;1.67;;;0.40;;
16159;SDS011;8185;57.818;15.224;2023-04-02T09:47:42;2.40;;;0.60;;
16159;SDS011;8185;57.818;15.224;2023-04-02T09:50:13;1.47;;;0.83;;
16159;SDS011;8185;57.818;15.224;2023-04-02T09:52:49;1.13;;;0.40;;
16159;SDS011;8185;57.818;15.224;2023-04-02T09:55:18;1.40;;;0.50;;
16159;SDS011;8185;57.818;15.224;2023-04-02T09:57:48;1.33;;;0.40;;
16159;SDS011;8185;57.818;15.224;2023-04-02T10:00:19;1.63;;;0.60;;
16159;SDS011;8185;57.818;15.224;2023-04-02T10:03:00;3.23;;;0.70;;
16159;SDS011;8185;57.818;15.224;2023-04-02T10:05:31;1.53;;;0.70;;
16159;SDS011;8185;57.818;15.224;2023-04-02T10:08:06;1.90;;;0.70;;
16159;SDS011;8185;57.818;15.224;2023-04-02T10:10:41;6.57;;;0.60;;
16159;SDS011;8185;57.818;15.224;2023-04-02T10:13:15;1.93;;;0.50;;
16159;SDS011;8185;57.818;15.224;2023-04-02T10:15:47;1.57;;;0.50;;
16159;SDS011;8185;57.818;15.224;2023-04-02T10:18:22;2.13;;;0.40;;
16159;SDS011;8185;57.818;15.224;2023-04-02T10:20:59;1.23;;;0.37;;
16159;SDS011;8185;57.818;15.224;2023-04-02T10:23:29;2.70;;;0.70;;
16159;SDS011;8185;57.818;15.224;2023-04-02T10:25:59;2.63;;;0.50;;
16159;SDS011;8185;57.818;15.224;2023-04-02T10:28:39;0.90;;;0.43;;
16159;SDS011;8185;57.818;15.224;2023-04-02T10:31:20;2.20;;;0.70;;
16159;SDS011;8185;57.818;15.224;2023-04-02T10:33:53;1.00;;;0.30;;
16159;SDS011;8185;57.818;15.224;2023-04-02T10:36:27;1.90;;;0.50;;
16159;SDS011;8185;57.818;15.224;2023-04-02T10:39:09;1.07;;;0.63;;
16159;SDS011;8185;57.818;15.224;2023-04-02T10:41:42;0.90;;;0.50;;
16159;SDS011;8185;57.818;15.224;2023-04-02T10:47:08;1.17;;;0.40;;
16159;SDS011;8185;57.818;15.224;2023-04-02T10:49:49;0.90;;;0.40;;
16159;SDS011;8185;57.818;15.224;2023-04-02T10:52:27;1.97;;;0.67;;
16159;SDS011;8185;57.818;15.224;2023-04-02T10:54:59;1.40;;;0.50;;
16159;SDS011;8185;57.818;15.224;2023-04-02T10:57:31;1.57;;;0.57;;
16159;SDS011;8185;57.818;15.224;2023-04-02T11:00:04;1.57;;;0.43;;
16159;SDS011;8185;57.818;15.224;2023-04-02T11:02:43;1.03;;;0.50;;
16159;SDS011;8185;57.818;15.224;2023-04-02T11:05:20;1.00;;;0.50;;
16159;SDS011;8185;57.818;15.224;2023-04-02T11:07:54;1.37;;;0.50;;
16159;SDS011;8185;57.818;15.224;2023-04-02T11:10:26;1.03;;;0.40;;
16159;SDS011;8185;57.818;15.224;2023-04-02T11:12:58;2.43;;;0.53;;
16159;SDS011;8185;57.818;15.224;2023-04-02T11:15:29;1.57;;;0.57;;
16159;SDS011;8185;57.818;15.224;2023-04-02T11:17:57;1.17;;;0.43;;
16159;SDS011;8185;57.818;15.224;2023-04-02T11:23:28;2.07;;;0.77;;
16159;SDS011;8185;57.818;15.224;2023-04-02T11:29:16;1.37;;;0.50;;
16159;SDS011;8185;57.818;15.224;2023-04-02T11:31:49;1.43;;;0.53;;
16159;SDS011;8185;57.818;15.224;2023-04-02T11:37:33;1.83;;;0.60;;
16159;SDS011;8185;57.818;15.224;2023-04-02T11:40:05;2.60;;;0.90;;
16159;SDS011;8185;57.818;15.224;2023-04-02T11:46:38;1.87;;;0.70;;
16159;SDS011;8185;57.818;15.224;2023-04-02T11:52:04;1.13;;;0.50;;
16159;SDS011;8185;57.818;15.224;2023-04-02T11:54:47;1.83;;;0.50;;
16159;SDS011;8185;57.818;15.224;2023-04-02T11:57:38;0.90;;;0.57;;
16159;SDS011;8185;57.818;15.224;2023-04-02T12:00:29;2.53;;;0.67;;
16159;SDS011;8185;57.818;15.224;2023-04-02T12:03:21;1.20;;;0.50;;
16159;SDS011;8185;57.818;15.224;2023-04-02T12:06:06;2.00;;;0.80;;
16159;SDS011;8185;57.818;15.224;2023-04-02T12:08:42;2.97;;;0.80;;
16159;SDS011;8185;57.818;15.224;2023-04-02T12:11:30;0.93;;;0.40;;
16159;SDS011;8185;57.818;15.224;2023-04-02T12:14:00;2.20;;;0.60;;
16159;SDS011;8185;57.818;15.224;2023-04-02T12:16:32;2.33;;;0.80;;
16159;SDS011;8185;57.818;15.224;2023-04-02T12:19:00;0.87;;;0.50;;
16159;SDS011;8185;57.818;15.224;2023-04-02T12:21:33;1.03;;;0.60;;
16159;SDS011;8185;57.818;15.224;2023-04-02T12:24:00;3.00;;;0.67;;
16159;SDS011;8185;57.818;15.224;2023-04-02T12:26:32;0.83;;;0.40;;
16159;SDS011;8185;57.818;15.224;2023-04-02T12:29:16;1.60;;;0.73;;
16159;SDS011;8185;57.818;15.224;2023-04-02T12:31:50;1.33;;;0.70;;
16159;SDS011;8185;57.818;15.224;2023-04-02T12:34:19;2.27;;;0.90;;
16159;SDS011;8185;57.818;15.224;2023-04-02T12:36:54;1.60;;;0.60;;
16159;SDS011;8185;57.818;15.224;2023-04-02T12:39:26;3.07;;;0.50;;
16159;SDS011;8185;57.818;15.224;2023-04-02T12:41:56;1.67;;;0.73;;
16159;SDS011;8185;57.818;15.224;2023-04-02T12:44:24;1.23;;;0.70;;
16159;SDS011;8185;57.818;15.224;2023-04-02T12:46:53;1.53;;;0.70;;
16159;SDS011;8185;57.818;15.224;2023-04-02T12:49:32;1.87;;;0.50;;
16159;SDS011;8185;57.818;15.224;2023-04-02T12:52:02;2.47;;;0.67;;
16159;SDS011;8185;57.818;15.224;2023-04-02T12:54:32;2.00;;;0.60;;
16159;SDS011;8185;57.818;15.224;2023-04-02T12:57:20;1.90;;;1.00;;
16159;SDS011;8185;57.818;15.224;2023-04-02T13:00:25;3.27;;;0.80;;
16159;SDS011;8185;57.818;15.224;2023-04-02T13:02:59;1.37;;;0.60;;
16159;SDS011;8185;57.818;15.224;2023-04-02T13:05:42;2.77;;;0.60;;
16159;SDS011;8185;57.818;15.224;2023-04-02T13:08:14;3.83;;;0.60;;
16159;SDS011;8185;57.818;15.224;2023-04-02T13:10:44;1.53;;;0.83;;
16159;SDS011;8185;57.818;15.224;2023-04-02T13:13:15;2.57;;;0.67;;
16159;SDS011;8185;57.818;15.224;2023-04-02T13:15:58;2.00;;;0.50;;
16159;SDS011;8185;57.818;15.224;2023-04-02T13:18:28;3.37;;;0.80;;
16159;SDS011;8185;57.818;15.224;2023-04-02T13:20:57;2.70;;;0.83;;
16159;SDS011;8185;57.818;15.224;2023-04-02T13:23:32;1.37;;;0.70;;
16159;SDS011;8185;57.818;15.224;2023-04-02T13:26:12;2.57;;;0.80;;
16159;SDS011;8185;57.818;15.224;2023-04-02T13:28:49;1.13;;;0.50;;
16159;SDS011;8185;57.818;15.224;2023-04-02T13:31:25;1.53;;;0.70;;
16159;SDS011;8185;57.818;15.224;2023-04-02T13:33:52;1.57;;;0.60;;
16159;SDS011;8185;57.818;15.224;2023-04-02T13:36:19;1.20;;;0.60;;
16159;SDS011;8185;57.818;15.224;2023-04-02T13:38:47;3.80;;;0.77;;
16159;SDS011;8185;57.818;15.224;2023-04-02T13:41:18;1.23;;;0.53;;
16159;SDS011;8185;57.818;15.224;2023-04-02T13:43:49;1.67;;;0.50;;
16159;SDS011;8185;57.818;15.224;2023-04-02T13:46:19;0.87;;;0.60;;
16159;SDS011;8185;57.818;15.224;2023-04-02T13:48:48;1.87;;;0.60;;
16159;SDS011;8185;57.818;15.224;2023-04-02T13:51:16;3.90;;;1.00;;
16159;SDS011;8185;57.818;15.224;2023-04-02T13:53:44;1.27;;;0.57;;
16159;SDS011;8185;57.818;15.224;2023-04-02T13:56:14;2.00;;;0.73;;
16159;SDS011;8185;57.818;15.224;2023-04-02T13:58:41;2.03;;;0.50;;
16159;SDS011;8185;57.818;15.224;2023-04-02T14:01:10;4.27;;;0.80;;
16159;SDS011;8185;57.818;15.224;2023-04-02T14:03:38;2.33;;;0.50;;
16159;SDS011;8185;57.818;15.224;2023-04-02T14:06:08;3.30;;;0.70;;
16159;SDS011;8185;57.818;15.224;2023-04-02T14:08:45;1.90;;;0.53;;
16159;SDS011;8185;57.818;15.224;2023-04-02T14:11:27;0.83;;;0.67;;
16159;SDS011;8185;57.818;15.224;2023-04-02T14:14:13;2.83;;;0.83;;
16159;SDS011;8185;57.818;15.224;2023-04-02T14:17:00;0.60;;;0.40;;
16159;SDS011;8185;57.818;15.224;2023-04-02T14:22:32;1.23;;;0.47;;
16159;SDS011;8185;57.818;15.224;2023-04-02T14:25:13;1.27;;;0.57;;
16159;SDS011;8185;57.818;15.224;2023-04-02T14:27:47;1.77;;;0.50;;
16159;SDS011;8185;57.818;15.224;2023-04-02T14:30:22;1.33;;;0.60;;
16159;SDS011;8185;57.818;15.224;2023-04-02T14:33:00;1.53;;;0.53;;
16159;SDS011;8185;57.818;15.224;2023-04-02T14:35:36;1.10;;;0.50;;
16159;SDS011;8185;57.818;15.224;2023-04-02T14:38:08;1.17;;;0.50;;
16159;SDS011;8185;57.818;15.224;2023-04-02T14:40:43;3.13;;;0.63;;
16159;SDS011;8185;57.818;15.224;2023-04-02T14:43:16;1.33;;;0.43;;
16159;SDS011;8185;57.818;15.224;2023-04-02T14:45:51;1.37;;;0.70;;
16159;SDS011;8185;57.818;15.224;2023-04-02T14:48:28;0.97;;;0.50;;
16159;SDS011;8185;57.818;15.224;2023-04-02T14:51:03;1.23;;;0.60;;
16159;SDS011;8185;57.818;15.224;2023-04-02T14:53:40;2.10;;;0.50;;
16159;SDS011;8185;57.818;15.224;2023-04-02T14:56:15;0.83;;;0.40;;
16159;SDS011;8185;57.818;15.224;2023-04-02T14:58:45;1.00;;;0.40;;
16159;SDS011;8185;57.818;15.224;2023-04-02T15:01:18;3.00;;;0.70;;
16159;SDS011;8185;57.818;15.224;2023-04-02T15:03:52;0.83;;;0.40;;
16159;SDS011;8185;57.818;15.224;2023-04-02T15:06:22;1.03;;;0.47;;
16159;SDS011;8185;57.818;15.224;2023-04-02T15:08:53;2.07;;;0.67;;
16159;SDS011;8185;57.818;15.224;2023-04-02T15:11:28;0.60;;;0.30;;
16159;SDS011;8185;57.818;15.224;2023-04-02T15:13:59;0.63;;;0.30;;
16159;SDS011;8185;57.818;15.224;2023-04-02T15:16:31;1.30;;;0.40;;
16159;SDS011;8185;57.818;15.224;2023-04-02T15:19:04;0.77;;;0.50;;
16159;SDS011;8185;57.818;15.224;2023-04-02T15:21:40;2.30;;;0.60;;
16159;SDS011;8185;57.818;15.224;2023-04-02T15:24:16;1.33;;;0.57;;
16159;SDS011;8185;57.818;15.224;2023-04-02T15:26:53;2.23;;;0.40;;
16159;SDS011;8185;57.818;15.224;2023-04-02T15:29:32;1.60;;;0.50;;
16159;SDS011;8185;57.818;15.224;2023-04-02T15:32:17;1.67;;;0.60;;
16159;SDS011;8185;57.818;15.224;2023-04-02T15:34:58;0.40;;;0.30;;
16159;SDS011;8185;57.818;15.224;2023-04-02T15:37:32;0.90;;;0.50;;
16159;SDS011;8185;57.818;15.224;2023-04-02T15:43:16;2.17;;;0.70;;
16159;SDS011;8185;57.818;15.224;2023-04-02T15:45:49;2.10;;;0.57;;
16159;SDS011;8185;57.818;15.224;2023-04-02T15:48:38;2.07;;;0.40;;
16159;SDS011;8185;57.818;15.224;2023-04-02T15:51:28;0.60;;;0.43;;
16159;SDS011;8185;57.818;15.224;2023-04-02T15:54:02;2.07;;;0.53;;
16159;SDS011;8185;57.818;15.224;2023-04-02T15:56:47;1.53;;;0.60;;